sensor_id;sensor_type;location;lat;lon;timestamp;pressure;altitude;pressure_sealevel;temperature
72405;BMP280;60395;52.020;113.548;2023-07-20T00:00:34;92707.97;;;36.59
72405;BMP280;60395;52.020;113.548;2023-07-20T00:03:54;92721.03;;;36.48
72405;BMP280;60395;52.020;113.548;2023-07-20T00:06:58;92720.28;;;36.54
72405;BMP280;60395;52.020;113.548;2023-07-20T00:10:13;92719.81;;;37.91
72405;BMP280;60395;52.020;113.548;2023-07-20T00:13:17;92715.31;;;37.78
72405;BMP280;60395;52.020;113.548;2023-07-20T00:16:22;92711.97;;;38.24
72405;BMP280;60395;52.020;113.548;2023-07-20T00:19:27;92715.69;;;38.12
72405;BMP280;60395;52.020;113.548;2023-07-20T00:22:30;92718.75;;;37.83
72405;BMP280;60395;52.020;113.548;2023-07-20T00:25:34;92714.97;;;38.22
72405;BMP280;60395;52.020;113.548;2023-07-20T00:28:38;92725.84;;;37.87
72405;BMP280;60395;52.020;113.548;2023-07-20T00:31:42;92731.47;;;37.65
72405;BMP280;60395;52.020;113.548;2023-07-20T00:34:46;92724.69;;;37.90
72405;BMP280;60395;52.020;113.548;2023-07-20T00:37:50;92733.63;;;38.42
72405;BMP280;60395;52.020;113.548;2023-07-20T00:40:55;92728.94;;;38.20
72405;BMP280;60395;52.020;113.548;2023-07-20T00:43:58;92721.25;;;38.32
72405;BMP280;60395;52.020;113.548;2023-07-20T00:47:02;92720.25;;;37.82
72405;BMP280;60395;52.020;113.548;2023-07-20T00:50:08;92716.28;;;38.12
72405;BMP280;60395;52.020;113.548;2023-07-20T00:53:13;92724.50;;;37.81
72405;BMP280;60395;52.020;113.548;2023-07-20T00:56:17;92727.63;;;36.44
72405;BMP280;60395;52.020;113.548;2023-07-20T00:59:21;92718.47;;;35.46
72405;BMP280;60395;52.020;113.548;2023-07-20T01:02:24;92706.91;;;33.53
72405;BMP280;60395;52.020;113.548;2023-07-20T01:06:00;92710.38;;;32.09
72405;BMP280;60395;52.020;113.548;2023-07-20T01:09:18;92703.69;;;31.17
72405;BMP280;60395;52.020;113.548;2023-07-20T01:12:27;92711.00;;;29.10
72405;BMP280;60395;52.020;113.548;2023-07-20T01:15:36;92705.44;;;28.15
72405;BMP280;60395;52.020;113.548;2023-07-20T01:18:40;92704.72;;;27.54
72405;BMP280;60395;52.020;113.548;2023-07-20T01:31:34;92705.91;;;25.86
72405;BMP280;60395;52.020;113.548;2023-07-20T01:34:40;92705.25;;;25.68
72405;BMP280;60395;52.020;113.548;2023-07-20T01:37:46;92706.84;;;25.57
72405;BMP280;60395;52.020;113.548;2023-07-20T01:40:50;92708.75;;;25.32
72405;BMP280;60395;52.020;113.548;2023-07-20T01:43:58;92710.78;;;25.32
72405;BMP280;60395;52.020;113.548;2023-07-20T01:47:02;92705.38;;;25.15
72405;BMP280;60395;52.020;113.548;2023-07-20T01:50:06;92705.25;;;25.17
72405;BMP280;60395;52.020;113.548;2023-07-20T01:53:10;92706.59;;;24.99
72405;BMP280;60395;52.020;113.548;2023-07-20T01:56:13;92702.38;;;24.65
72405;BMP280;60395;52.020;113.548;2023-07-20T01:59:17;92694.56;;;24.44
72405;BMP280;60395;52.020;113.548;2023-07-20T02:02:20;92692.97;;;24.47
72405;BMP280;60395;52.020;113.548;2023-07-20T02:05:23;92684.16;;;24.49
72405;BMP280;60395;52.020;113.548;2023-07-20T02:08:27;92690.25;;;24.39
72405;BMP280;60395;52.020;113.548;2023-07-20T02:11:31;92690.84;;;24.31
72405;BMP280;60395;52.020;113.548;2023-07-20T02:14:35;92686.59;;;24.34
72405;BMP280;60395;52.020;113.548;2023-07-20T02:17:39;92688.34;;;24.37
72405;BMP280;60395;52.020;113.548;2023-07-20T02:20:44;92688.78;;;24.31
72405;BMP280;60395;52.020;113.548;2023-07-20T02:23:48;92688.78;;;24.31
72405;BMP280;60395;52.020;113.548;2023-07-20T02:26:52;92689.75;;;24.36
72405;BMP280;60395;52.020;113.548;2023-07-20T02:29:55;92686.97;;;24.47
72405;BMP280;60395;52.020;113.548;2023-07-20T02:32:58;92685.56;;;24.48
72405;BMP280;60395;52.020;113.548;2023-07-20T02:36:02;92675.13;;;24.44
72405;BMP280;60395;52.020;113.548;2023-07-20T02:39:05;92679.88;;;24.52
72405;BMP280;60395;52.020;113.548;2023-07-20T02:42:09;92679.59;;;24.56
72405;BMP280;60395;52.020;113.548;2023-07-20T02:45:13;92678.50;;;24.61
72405;BMP280;60395;52.020;113.548;2023-07-20T02:48:16;92673.94;;;24.68
72405;BMP280;60395;52.020;113.548;2023-07-20T02:51:19;92671.09;;;24.70
72405;BMP280;60395;52.020;113.548;2023-07-20T02:54:23;92669.06;;;24.71
72405;BMP280;60395;52.020;113.548;2023-07-20T02:57:26;92666.88;;;24.82
72405;BMP280;60395;52.020;113.548;2023-07-20T03:00:30;92666.59;;;24.95
72405;BMP280;60395;52.020;113.548;2023-07-20T03:03:33;92667.41;;;24.93
72405;BMP280;60395;52.020;113.548;2023-07-20T03:06:41;92656.78;;;24.83
72405;BMP280;60395;52.020;113.548;2023-07-20T03:09:45;92666.44;;;24.97
72405;BMP280;60395;52.020;113.548;2023-07-20T03:12:49;92660.31;;;25.07
72405;BMP280;60395;52.020;113.548;2023-07-20T03:15:53;92660.00;;;25.11
72405;BMP280;60395;52.020;113.548;2023-07-20T03:18:57;92658.56;;;25.03
72405;BMP280;60395;52.020;113.548;2023-07-20T03:22:00;92658.22;;;24.90
72405;BMP280;60395;52.020;113.548;2023-07-20T03:25:05;92657.06;;;24.70
72405;BMP280;60395;52.020;113.548;2023-07-20T03:28:08;92646.75;;;24.64
72405;BMP280;60395;52.020;113.548;2023-07-20T03:31:12;92648.84;;;24.81
72405;BMP280;60395;52.020;113.548;2023-07-20T03:34:16;92657.31;;;25.19
72405;BMP280;60395;52.020;113.548;2023-07-20T03:37:19;92641.22;;;25.28
72405;BMP280;60395;52.020;113.548;2023-07-20T03:40:24;92649.91;;;25.37
72405;BMP280;60395;52.020;113.548;2023-07-20T03:43:28;92652.28;;;25.41
72405;BMP280;60395;52.020;113.548;2023-07-20T03:46:32;92639.31;;;25.43
72405;BMP280;60395;52.020;113.548;2023-07-20T03:49:40;92637.72;;;25.46
72405;BMP280;60395;52.020;113.548;2023-07-20T03:52:43;92646.28;;;25.49
72405;BMP280;60395;52.020;113.548;2023-07-20T03:55:48;92634.56;;;25.44
72405;BMP280;60395;52.020;113.548;2023-07-20T03:58:52;92636.44;;;25.45
72405;BMP280;60395;52.020;113.548;2023-07-20T04:01:55;92628.84;;;25.57
72405;BMP280;60395;52.020;113.548;2023-07-20T04:05:02;92619.81;;;25.69
72405;BMP280;60395;52.020;113.548;2023-07-20T04:08:05;92618.06;;;25.82
72405;BMP280;60395;52.020;113.548;2023-07-20T04:11:08;92606.81;;;25.88
72405;BMP280;60395;52.020;113.548;2023-07-20T04:14:12;92606.50;;;25.92
72405;BMP280;60395;52.020;113.548;2023-07-20T04:17:16;92603.16;;;25.92
72405;BMP280;60395;52.020;113.548;2023-07-20T04:20:22;92601.41;;;25.97
72405;BMP280;60395;52.020;113.548;2023-07-20T04:23:33;92596.63;;;26.06
72405;BMP280;60395;52.020;113.548;2023-07-20T04:26:39;92588.09;;;26.03
72405;BMP280;60395;52.020;113.548;2023-07-20T04:29:42;92588.25;;;26.01
72405;BMP280;60395;52.020;113.548;2023-07-20T04:32:47;92591.56;;;26.02
72405;BMP280;60395;52.020;113.548;2023-07-20T04:35:53;92588.75;;;26.04
72405;BMP280;60395;52.020;113.548;2023-07-20T04:39:10;92588.44;;;25.99
72405;BMP280;60395;52.020;113.548;2023-07-20T04:42:34;92577.97;;;26.04
72405;BMP280;60395;52.020;113.548;2023-07-20T04:45:37;92587.59;;;26.09
72405;BMP280;60395;52.020;113.548;2023-07-20T04:48:41;92592.16;;;26.11
72405;BMP280;60395;52.020;113.548;2023-07-20T04:51:45;92579.03;;;26.15
72405;BMP280;60395;52.020;113.548;2023-07-20T04:54:48;92578.97;;;26.32
72405;BMP280;60395;52.020;113.548;2023-07-20T04:57:52;92580.44;;;26.14
72405;BMP280;60395;52.020;113.548;2023-07-20T05:00:57;92574.72;;;26.18
72405;BMP280;60395;52.020;113.548;2023-07-20T05:04:01;92577.91;;;26.12
72405;BMP280;60395;52.020;113.548;2023-07-20T05:07:05;92566.56;;;26.03
72405;BMP280;60395;52.020;113.548;2023-07-20T05:10:09;92569.25;;;26.03
72405;BMP280;60395;52.020;113.548;2023-07-20T05:13:13;92562.59;;;26.02
72405;BMP280;60395;52.020;113.548;2023-07-20T05:16:17;92553.88;;;26.02
72405;BMP280;60395;52.020;113.548;2023-07-20T05:19:21;92566.06;;;26.09
72405;BMP280;60395;52.020;113.548;2023-07-20T05:22:25;92567.66;;;26.06
72405;BMP280;60395;52.020;113.548;2023-07-20T05:25:28;92551.44;;;25.83
72405;BMP280;60395;52.020;113.548;2023-07-20T05:28:33;92558.09;;;25.75
72405;BMP280;60395;52.020;113.548;2023-07-20T05:31:36;92548.59;;;25.76
72405;BMP280;60395;52.020;113.548;2023-07-20T05:34:40;92547.00;;;25.88
72405;BMP280;60395;52.020;113.548;2023-07-20T05:37:45;92550.56;;;26.01
72405;BMP280;60395;52.020;113.548;2023-07-20T05:40:49;92547.53;;;26.14
72405;BMP280;60395;52.020;113.548;2023-07-20T05:43:53;92545.28;;;26.16
72405;BMP280;60395;52.020;113.548;2023-07-20T05:46:57;92532.50;;;26.08
72405;BMP280;60395;52.020;113.548;2023-07-20T05:50:00;92536.66;;;25.99
72405;BMP280;60395;52.020;113.548;2023-07-20T05:53:04;92532.91;;;25.87
72405;BMP280;60395;52.020;113.548;2023-07-20T05:56:07;92536.50;;;25.92
72405;BMP280;60395;52.020;113.548;2023-07-20T05:59:14;92529.66;;;26.02
72405;BMP280;60395;52.020;113.548;2023-07-20T06:02:18;92540.06;;;26.14
72405;BMP280;60395;52.020;113.548;2023-07-20T06:05:22;92534.59;;;26.31
72405;BMP280;60395;52.020;113.548;2023-07-20T06:08:31;92532.66;;;26.38
72405;BMP280;60395;52.020;113.548;2023-07-20T06:11:34;92525.22;;;26.39
72405;BMP280;60395;52.020;113.548;2023-07-20T06:14:38;92531.34;;;26.46
72405;BMP280;60395;52.020;113.548;2023-07-20T06:17:41;92532.97;;;26.43
72405;BMP280;60395;52.020;113.548;2023-07-20T06:20:51;92538.50;;;26.41
72405;BMP280;60395;52.020;113.548;2023-07-20T06:23:55;92535.41;;;26.30
72405;BMP280;60395;52.020;113.548;2023-07-20T06:26:59;92539.88;;;26.25
72405;BMP280;60395;52.020;113.548;2023-07-20T06:30:02;92529.91;;;26.23
72405;BMP280;60395;52.020;113.548;2023-07-20T06:33:06;92534.00;;;26.22
72405;BMP280;60395;52.020;113.548;2023-07-20T06:36:13;92529.03;;;26.33
72405;BMP280;60395;52.020;113.548;2023-07-20T06:39:17;92528.66;;;26.46
72405;BMP280;60395;52.020;113.548;2023-07-20T06:42:23;92531.28;;;26.55
72405;BMP280;60395;52.020;113.548;2023-07-20T06:45:27;92526.03;;;26.61
72405;BMP280;60395;52.020;113.548;2023-07-20T06:48:30;92528.28;;;26.59
72405;BMP280;60395;52.020;113.548;2023-07-20T06:51:33;92535.72;;;26.58
72405;BMP280;60395;52.020;113.548;2023-07-20T06:54:37;92524.38;;;26.49
72405;BMP280;60395;52.020;113.548;2023-07-20T06:57:46;92527.09;;;26.41
72405;BMP280;60395;52.020;113.548;2023-07-20T07:00:50;92535.03;;;26.43
72405;BMP280;60395;52.020;113.548;2023-07-20T07:03:54;92521.84;;;26.47
72405;BMP280;60395;52.020;113.548;2023-07-20T07:06:59;92527.66;;;26.58
72405;BMP280;60395;52.020;113.548;2023-07-20T07:10:03;92526.03;;;26.61
72405;BMP280;60395;52.020;113.548;2023-07-20T07:13:08;92524.88;;;26.67
72405;BMP280;60395;52.020;113.548;2023-07-20T07:16:11;92523.56;;;26.74
72405;BMP280;60395;52.020;113.548;2023-07-20T07:19:15;92525.00;;;26.73
72405;BMP280;60395;52.020;113.548;2023-07-20T07:22:18;92520.06;;;26.76
72405;BMP280;60395;52.020;113.548;2023-07-20T07:25:21;92521.13;;;26.79
72405;BMP280;60395;52.020;113.548;2023-07-20T07:28:25;92513.44;;;26.75
72405;BMP280;60395;52.020;113.548;2023-07-20T07:31:29;92516.69;;;26.84
72405;BMP280;60395;52.020;113.548;2023-07-20T07:34:33;92511.09;;;26.86
72405;BMP280;60395;52.020;113.548;2023-07-20T07:37:37;92511.84;;;26.93
72405;BMP280;60395;52.020;113.548;2023-07-20T07:41:00;92508.97;;;26.95
72405;BMP280;60395;52.020;113.548;2023-07-20T07:44:04;92514.47;;;27.01
72405;BMP280;60395;52.020;113.548;2023-07-20T07:47:08;92515.53;;;27.04
72405;BMP280;60395;52.020;113.548;2023-07-20T07:50:12;92513.22;;;27.00
72405;BMP280;60395;52.020;113.548;2023-07-20T07:53:15;92507.38;;;26.98
72405;BMP280;60395;52.020;113.548;2023-07-20T07:56:18;92513.03;;;27.02
72405;BMP280;60395;52.020;113.548;2023-07-20T07:59:26;92505.59;;;27.03
72405;BMP280;60395;52.020;113.548;2023-07-20T08:02:30;92513.22;;;27.00
72405;BMP280;60395;52.020;113.548;2023-07-20T08:05:34;92505.91;;;26.99
72405;BMP280;60395;52.020;113.548;2023-07-20T08:08:39;92500.09;;;26.96
72405;BMP280;60395;52.020;113.548;2023-07-20T08:11:43;92500.44;;;26.92
72405;BMP280;60395;52.020;113.548;2023-07-20T08:14:47;92503.22;;;26.99
72405;BMP280;60395;52.020;113.548;2023-07-20T08:17:51;92502.53;;;27.07
72405;BMP280;60395;52.020;113.548;2023-07-20T08:20:55;92495.69;;;27.08
72405;BMP280;60395;52.020;113.548;2023-07-20T08:23:58;92498.03;;;27.12
72405;BMP280;60395;52.020;113.548;2023-07-20T08:27:02;92501.81;;;27.15
72405;BMP280;60395;52.020;113.548;2023-07-20T08:30:06;92501.28;;;27.06
72405;BMP280;60395;52.020;113.548;2023-07-20T08:33:14;92499.38;;;27.04
72405;BMP280;60395;52.020;113.548;2023-07-20T08:36:18;92499.44;;;26.96
72405;BMP280;60395;52.020;113.548;2023-07-20T08:39:23;92490.28;;;26.93
72405;BMP280;60395;52.020;113.548;2023-07-20T08:42:27;92493.78;;;26.91
72405;BMP280;60395;52.020;113.548;2023-07-20T08:45:34;92487.28;;;26.88
72405;BMP280;60395;52.020;113.548;2023-07-20T08:48:41;92486.63;;;26.73
72405;BMP280;60395;52.020;113.548;2023-07-20T08:51:46;92491.28;;;26.66
72405;BMP280;60395;52.020;113.548;2023-07-20T08:54:50;92496.38;;;26.61
72405;BMP280;60395;52.020;113.548;2023-07-20T08:58:00;92489.59;;;26.62
72405;BMP280;60395;52.020;113.548;2023-07-20T09:01:03;92491.47;;;26.64
72405;BMP280;60395;52.020;113.548;2023-07-20T09:04:08;92491.81;;;26.60
72405;BMP280;60395;52.020;113.548;2023-07-20T09:07:11;92488.94;;;26.62
72405;BMP280;60395;52.020;113.548;2023-07-20T09:10:17;92487.03;;;26.60
72405;BMP280;60395;52.020;113.548;2023-07-20T09:13:21;92484.69;;;26.56
72405;BMP280;60395;52.020;113.548;2023-07-20T09:16:25;92484.56;;;26.50
72405;BMP280;60395;52.020;113.548;2023-07-20T09:19:29;92493.06;;;26.61
72405;BMP280;60395;52.020;113.548;2023-07-20T09:22:33;92492.84;;;26.48
72405;BMP280;60395;52.020;113.548;2023-07-20T09:25:36;92492.25;;;26.38
72405;BMP280;60395;52.020;113.548;2023-07-20T09:32:09;92494.53;;;26.27
72405;BMP280;60395;52.020;113.548;2023-07-20T09:35:26;92484.81;;;26.15
72405;BMP280;60395;52.020;113.548;2023-07-20T09:38:43;92499.69;;;26.14
72405;BMP280;60395;52.020;113.548;2023-07-20T09:41:51;92496.38;;;26.14
72405;BMP280;60395;52.020;113.548;2023-07-20T09:45:15;92501.13;;;26.13
72405;BMP280;60395;52.020;113.548;2023-07-20T09:48:24;92504.59;;;26.20
72405;BMP280;60395;52.020;113.548;2023-07-20T09:51:30;92507.59;;;26.16
72405;BMP280;60395;52.020;113.548;2023-07-20T09:54:34;92503.53;;;26.09
72405;BMP280;60395;52.020;113.548;2023-07-20T09:57:38;92499.28;;;26.03
72405;BMP280;60395;52.020;113.548;2023-07-20T10:00:42;92507.69;;;25.99
72405;BMP280;60395;52.020;113.548;2023-07-20T10:03:58;92497.75;;;25.89
72405;BMP280;60395;52.020;113.548;2023-07-20T10:07:10;92502.94;;;25.91
72405;BMP280;60395;52.020;113.548;2023-07-20T10:10:18;92506.78;;;25.86
72405;BMP280;60395;52.020;113.548;2023-07-20T10:13:26;92505.38;;;25.87
72405;BMP280;60395;52.020;113.548;2023-07-20T10:16:34;92503.78;;;25.81
72405;BMP280;60395;52.020;113.548;2023-07-20T10:19:47;92509.03;;;25.75
72405;BMP280;60395;52.020;113.548;2023-07-20T10:22:54;92503.34;;;25.62
72405;BMP280;60395;52.020;113.548;2023-07-20T10:25:59;92505.00;;;25.50
72405;BMP280;60395;52.020;113.548;2023-07-20T10:29:04;92500.41;;;25.48
72405;BMP280;60395;52.020;113.548;2023-07-20T10:32:09;92508.31;;;25.42
72405;BMP280;60395;52.020;113.548;2023-07-20T10:35:16;92503.91;;;25.38
72405;BMP280;60395;52.020;113.548;2023-07-20T10:42:09;92494.44;;;25.31
72405;BMP280;60395;52.020;113.548;2023-07-20T10:45:13;92496.03;;;25.19
72405;BMP280;60395;52.020;113.548;2023-07-20T10:48:24;92495.72;;;25.15
72405;BMP280;60395;52.020;113.548;2023-07-20T10:51:28;92500.00;;;25.03
72405;BMP280;60395;52.020;113.548;2023-07-20T10:57:36;92501.56;;;24.92
72405;BMP280;60395;52.020;113.548;2023-07-20T11:00:58;92497.00;;;24.90
72405;BMP280;60395;52.020;113.548;2023-07-20T11:04:08;92497.63;;;24.82
72405;BMP280;60395;52.020;113.548;2023-07-20T11:07:37;92496.06;;;24.77
72405;BMP280;60395;52.020;113.548;2023-07-20T11:10:41;92501.59;;;24.66
72405;BMP280;60395;52.020;113.548;2023-07-20T11:14:23;92503.47;;;24.59
72405;BMP280;60395;52.020;113.548;2023-07-20T11:17:31;92503.13;;;24.46
72405;BMP280;60395;52.020;113.548;2023-07-20T11:20:36;92499.97;;;24.35
72405;BMP280;60395;52.020;113.548;2023-07-20T11:23:40;92502.16;;;24.24
72405;BMP280;60395;52.020;113.548;2023-07-20T11:26:47;92500.81;;;24.14
72405;BMP280;60395;52.020;113.548;2023-07-20T11:29:51;92502.84;;;24.05
72405;BMP280;60395;52.020;113.548;2023-07-20T11:32:55;92498.38;;;23.93
72405;BMP280;60395;52.020;113.548;2023-07-20T11:35:58;92498.50;;;23.82
72405;BMP280;60395;52.020;113.548;2023-07-20T11:39:02;92500.69;;;23.71
72405;BMP280;60395;52.020;113.548;2023-07-20T11:42:08;92509.75;;;23.57
72405;BMP280;60395;52.020;113.548;2023-07-20T11:45:11;92501.75;;;23.38
72405;BMP280;60395;52.020;113.548;2023-07-20T11:48:18;92505.75;;;23.20
72405;BMP280;60395;52.020;113.548;2023-07-20T11:51:21;92507.78;;;23.00
72405;BMP280;60395;52.020;113.548;2023-07-20T11:54:24;92507.97;;;22.88
72405;BMP280;60395;52.020;113.548;2023-07-20T11:57:28;92506.59;;;22.70
72405;BMP280;60395;52.020;113.548;2023-07-20T12:00:36;92514.50;;;22.61
72405;BMP280;60395;52.020;113.548;2023-07-20T12:03:43;92521.34;;;22.50
72405;BMP280;60395;52.020;113.548;2023-07-20T12:06:48;92524.06;;;22.39
72405;BMP280;60395;52.020;113.548;2023-07-20T12:10:11;92528.19;;;22.27
72405;BMP280;60395;52.020;113.548;2023-07-20T12:13:15;92526.97;;;22.05
72405;BMP280;60395;52.020;113.548;2023-07-20T12:16:19;92536.31;;;21.85
72405;BMP280;60395;52.020;113.548;2023-07-20T12:19:25;92525.03;;;21.63
72405;BMP280;60395;52.020;113.548;2023-07-20T12:22:29;92535.09;;;21.52
72405;BMP280;60395;52.020;113.548;2023-07-20T12:25:42;92539.31;;;21.39
72405;BMP280;60395;52.020;113.548;2023-07-20T12:28:46;92532.81;;;21.15
72405;BMP280;60395;52.020;113.548;2023-07-20T12:31:49;92538.00;;;20.95
72405;BMP280;60395;52.020;113.548;2023-07-20T12:34:53;92536.81;;;20.82
72405;BMP280;60395;52.020;113.548;2023-07-20T12:37:58;92543.53;;;20.70
72405;BMP280;60395;52.020;113.548;2023-07-20T12:41:02;92549.19;;;20.54
72405;BMP280;60395;52.020;113.548;2023-07-20T12:44:05;92550.19;;;20.48
72405;BMP280;60395;52.020;113.548;2023-07-20T12:47:09;92559.53;;;20.37
72405;BMP280;60395;52.020;113.548;2023-07-20T12:50:12;92555.53;;;20.25
72405;BMP280;60395;52.020;113.548;2023-07-20T12:53:18;92560.56;;;20.18
72405;BMP280;60395;52.020;113.548;2023-07-20T12:56:22;92555.19;;;20.08
72405;BMP280;60395;52.020;113.548;2023-07-20T12:59:28;92562.91;;;20.01
72405;BMP280;60395;52.020;113.548;2023-07-20T13:02:32;92564.41;;;19.98
72405;BMP280;60395;52.020;113.548;2023-07-20T13:05:36;92569.44;;;19.92
72405;BMP280;60395;52.020;113.548;2023-07-20T13:08:42;92570.97;;;19.76
72405;BMP280;60395;52.020;113.548;2023-07-20T13:11:45;92573.81;;;19.61
72405;BMP280;60395;52.020;113.548;2023-07-20T13:14:49;92577.03;;;19.51
72405;BMP280;60395;52.020;113.548;2023-07-20T13:17:52;92569.13;;;19.49
72405;BMP280;60395;52.020;113.548;2023-07-20T13:20:55;92566.69;;;19.45
72405;BMP280;60395;52.020;113.548;2023-07-20T13:24:05;92570.97;;;19.40
72405;BMP280;60395;52.020;113.548;2023-07-20T13:27:08;92574.91;;;19.41
72405;BMP280;60395;52.020;113.548;2023-07-20T13:30:13;92570.19;;;19.42
72405;BMP280;60395;52.020;113.548;2023-07-20T13:33:19;92574.59;;;19.35
72405;BMP280;60395;52.020;113.548;2023-07-20T13:36:23;92572.47;;;19.25
72405;BMP280;60395;52.020;113.548;2023-07-20T13:39:27;92579.91;;;19.10
72405;BMP280;60395;52.020;113.548;2023-07-20T13:42:31;92582.72;;;19.08
72405;BMP280;60395;52.020;113.548;2023-07-20T13:45:37;92588.47;;;19.12
72405;BMP280;60395;52.020;113.548;2023-07-20T13:48:41;92580.56;;;19.10
72405;BMP280;60395;52.020;113.548;2023-07-20T13:51:45;92590.16;;;19.05
72405;BMP280;60395;52.020;113.548;2023-07-20T13:54:51;92591.53;;;19.04
72405;BMP280;60395;52.020;113.548;2023-07-20T13:57:56;92587.16;;;18.98
72405;BMP280;60395;52.020;113.548;2023-07-20T14:01:00;92590.78;;;18.80
72405;BMP280;60395;52.020;113.548;2023-07-20T14:04:03;92594.66;;;18.56
72405;BMP280;60395;52.020;113.548;2023-07-20T14:07:07;92598.22;;;18.25
72405;BMP280;60395;52.020;113.548;2023-07-20T14:10:10;92590.75;;;18.01
72405;BMP280;60395;52.020;113.548;2023-07-20T14:13:16;92600.69;;;17.88
72405;BMP280;60395;52.020;113.548;2023-07-20T14:16:21;92600.06;;;17.73
72405;BMP280;60395;52.020;113.548;2023-07-20T14:19:31;92597.22;;;17.62
72405;BMP280;60395;52.020;113.548;2023-07-20T14:22:34;92608.56;;;17.60
72405;BMP280;60395;52.020;113.548;2023-07-20T14:25:39;92606.66;;;17.74
72405;BMP280;60395;52.020;113.548;2023-07-20T14:28:43;92614.91;;;17.82
72405;BMP280;60395;52.020;113.548;2023-07-20T14:31:46;92619.03;;;17.79
72405;BMP280;60395;52.020;113.548;2023-07-20T14:34:55;92630.13;;;17.69
72405;BMP280;60395;52.020;113.548;2023-07-20T14:37:58;92637.06;;;17.62
72405;BMP280;60395;52.020;113.548;2023-07-20T14:41:02;92634.69;;;17.56
72405;BMP280;60395;52.020;113.548;2023-07-20T14:44:05;92632.22;;;17.52
72405;BMP280;60395;52.020;113.548;2023-07-20T14:47:08;92647.63;;;17.49
72405;BMP280;60395;52.020;113.548;2023-07-20T14:50:16;92641.94;;;17.43
72405;BMP280;60395;52.020;113.548;2023-07-20T14:53:20;92634.88;;;17.37
72405;BMP280;60395;52.020;113.548;2023-07-20T14:56:23;92637.63;;;17.35
72405;BMP280;60395;52.020;113.548;2023-07-20T14:59:27;92638.00;;;17.27
72405;BMP280;60395;52.020;113.548;2023-07-20T15:02:30;92633.94;;;17.14
72405;BMP280;60395;52.020;113.548;2023-07-20T15:05:33;92638.03;;;16.96
72405;BMP280;60395;52.020;113.548;2023-07-20T15:08:38;92636.28;;;16.90
72405;BMP280;60395;52.020;113.548;2023-07-20T15:11:41;92647.88;;;16.83
72405;BMP280;60395;52.020;113.548;2023-07-20T15:18:04;92653.34;;;16.79
72405;BMP280;60395;52.020;113.548;2023-07-20T15:21:08;92652.47;;;16.68
72405;BMP280;60395;52.020;113.548;2023-07-20T15:24:11;92648.19;;;16.60
72405;BMP280;60395;52.020;113.548;2023-07-20T15:27:14;92652.91;;;16.58
72405;BMP280;60395;52.020;113.548;2023-07-20T15:30:18;92648.94;;;16.57
72405;BMP280;60395;52.020;113.548;2023-07-20T15:33:24;92643.59;;;16.59
72405;BMP280;60395;52.020;113.548;2023-07-20T15:36:28;92639.09;;;16.55
72405;BMP280;60395;52.020;113.548;2023-07-20T15:39:31;92639.34;;;16.49
72405;BMP280;60395;52.020;113.548;2023-07-20T15:42:35;92639.66;;;16.41
72405;BMP280;60395;52.020;113.548;2023-07-20T15:45:39;92643.84;;;16.36
72405;BMP280;60395;52.020;113.548;2023-07-20T15:48:45;92648.66;;;16.31
72405;BMP280;60395;52.020;113.548;2023-07-20T15:51:49;92652.13;;;16.28
72405;BMP280;60395;52.020;113.548;2023-07-20T15:54:52;92652.78;;;16.28
72405;BMP280;60395;52.020;113.548;2023-07-20T15:57:58;92655.97;;;16.31
72405;BMP280;60395;52.020;113.548;2023-07-20T16:01:01;92655.31;;;16.30
72405;BMP280;60395;52.020;113.548;2023-07-20T16:04:05;92664.91;;;16.23
72405;BMP280;60395;52.020;113.548;2023-07-20T16:07:09;92651.00;;;16.06
72405;BMP280;60395;52.020;113.548;2023-07-20T16:10:12;92659.03;;;16.04
72405;BMP280;60395;52.020;113.548;2023-07-20T16:13:15;92654.19;;;15.92
72405;BMP280;60395;52.020;113.548;2023-07-20T16:16:19;92658.84;;;15.92
72405;BMP280;60395;52.020;113.548;2023-07-20T16:19:22;92667.41;;;15.75
72405;BMP280;60395;52.020;113.548;2023-07-20T16:22:25;92666.06;;;15.58
72405;BMP280;60395;52.020;113.548;2023-07-20T16:25:29;92669.31;;;15.42
72405;BMP280;60395;52.020;113.548;2023-07-20T16:28:32;92667.19;;;15.28
72405;BMP280;60395;52.020;113.548;2023-07-20T16:31:36;92680.69;;;15.19
72405;BMP280;60395;52.020;113.548;2023-07-20T16:35:00;92680.47;;;15.07
72405;BMP280;60395;52.020;113.548;2023-07-20T16:38:07;92689.19;;;15.03
72405;BMP280;60395;52.020;113.548;2023-07-20T16:41:13;92699.19;;;15.01
72405;BMP280;60395;52.020;113.548;2023-07-20T16:44:37;92675.59;;;14.95
72405;BMP280;60395;52.020;113.548;2023-07-20T16:47:40;92664.66;;;14.86
72405;BMP280;60395;52.020;113.548;2023-07-20T16:50:43;92665.56;;;14.79
72405;BMP280;60395;52.020;113.548;2023-07-20T16:53:47;92659.53;;;14.61
72405;BMP280;60395;52.020;113.548;2023-07-20T16:56:51;92664.13;;;14.42
72405;BMP280;60395;52.020;113.548;2023-07-20T16:59:54;92656.72;;;14.26
72405;BMP280;60395;52.020;113.548;2023-07-20T17:02:57;92659.16;;;14.12
72405;BMP280;60395;52.020;113.548;2023-07-20T17:06:03;92654.69;;;14.06
72405;BMP280;60395;52.020;113.548;2023-07-20T17:09:10;92656.75;;;14.03
72405;BMP280;60395;52.020;113.548;2023-07-20T17:12:13;92653.41;;;14.05
72405;BMP280;60395;52.020;113.548;2023-07-20T17:15:16;92654.56;;;14.10
72405;BMP280;60395;52.020;113.548;2023-07-20T17:18:20;92664.31;;;14.16
72405;BMP280;60395;52.020;113.548;2023-07-20T17:21:23;92669.41;;;14.22
72405;BMP280;60395;52.020;113.548;2023-07-20T17:24:27;92670.56;;;14.27
72405;BMP280;60395;52.020;113.548;2023-07-20T17:27:33;92679.25;;;14.23
72405;BMP280;60395;52.020;113.548;2023-07-20T17:30:40;92667.22;;;14.07
72405;BMP280;60395;52.020;113.548;2023-07-20T17:33:43;92666.88;;;13.97
72405;BMP280;60395;52.020;113.548;2023-07-20T17:36:47;92664.28;;;13.95
72405;BMP280;60395;52.020;113.548;2023-07-20T17:39:54;92666.88;;;13.97